sensor_id;sensor_type;location;lat;lon;timestamp;temperature;humidity
51801;DHT22;37855;53.204;6.568;2023-04-03T00:00:56;3.20;64.90
51801;DHT22;37855;53.204;6.568;2023-04-03T00:03:22;3.10;65.10
51801;DHT22;37855;53.204;6.568;2023-04-03T00:05:47;3.10;65.10
51801;DHT22;37855;53.204;6.568;2023-04-03T00:08:13;3.00;65.10
51801;DHT22;37855;53.204;6.568;2023-04-03T00:10:40;3.00;65.10
51801;DHT22;37855;53.204;6.568;2023-04-03T00:13:07;3.00;65.10
51801;DHT22;37855;53.204;6.568;2023-04-03T00:15:34;2.90;65.40
51801;DHT22;37855;53.204;6.568;2023-04-03T00:18:00;2.90;65.10
51801;DHT22;37855;53.204;6.568;2023-04-03T00:20:26;2.90;65.40
51801;DHT22;37855;53.204;6.568;2023-04-03T00:22:53;2.90;65.10
51801;DHT22;37855;53.204;6.568;2023-04-03T00:25:19;2.90;65.00
51801;DHT22;37855;53.204;6.568;2023-04-03T00:27:44;2.80;64.80
51801;DHT22;37855;53.204;6.568;2023-04-03T00:30:18;2.80;64.50
51801;DHT22;37855;53.204;6.568;2023-04-03T00:32:51;2.80;64.30
51801;DHT22;37855;53.204;6.568;2023-04-03T00:35:18;2.80;64.20
51801;DHT22;37855;53.204;6.568;2023-04-03T00:37:45;2.80;63.50
51801;DHT22;37855;53.204;6.568;2023-04-03T00:40:12;2.70;63.80
51801;DHT22;37855;53.204;6.568;2023-04-03T00:42:40;2.70;63.70
51801;DHT22;37855;53.204;6.568;2023-04-03T00:47:32;2.70;63.50
51801;DHT22;37855;53.204;6.568;2023-04-03T00:49:58;2.60;63.80
51801;DHT22;37855;53.204;6.568;2023-04-03T00:52:28;2.50;63.90
51801;DHT22;37855;53.204;6.568;2023-04-03T00:54:57;2.50;64.10
51801;DHT22;37855;53.204;6.568;2023-04-03T00:57:26;2.50;64.00
51801;DHT22;37855;53.204;6.568;2023-04-03T00:59:56;2.50;64.20
51801;DHT22;37855;53.204;6.568;2023-04-03T01:02:22;2.50;64.30
51801;DHT22;37855;53.204;6.568;2023-04-03T01:04:48;2.50;64.50
51801;DHT22;37855;53.204;6.568;2023-04-03T01:07:27;2.50;64.50
51801;DHT22;37855;53.204;6.568;2023-04-03T01:09:57;2.30;64.90
51801;DHT22;37855;53.204;6.568;2023-04-03T01:12:34;2.30;65.00
51801;DHT22;37855;53.204;6.568;2023-04-03T01:15:05;2.30;65.10
51801;DHT22;37855;53.204;6.568;2023-04-03T01:17:36;2.30;65.00
51801;DHT22;37855;53.204;6.568;2023-04-03T01:25:23;2.20;65.80
51801;DHT22;37855;53.204;6.568;2023-04-03T01:27:49;2.10;65.60
51801;DHT22;37855;53.204;6.568;2023-04-03T01:30:18;2.20;65.70
51801;DHT22;37855;53.204;6.568;2023-04-03T01:32:44;2.20;65.50
51801;DHT22;37855;53.204;6.568;2023-04-03T01:35:10;2.20;65.60
51801;DHT22;37855;53.204;6.568;2023-04-03T01:37:36;2.10;65.70
51801;DHT22;37855;53.204;6.568;2023-04-03T01:40:03;2.10;65.70
51801;DHT22;37855;53.204;6.568;2023-04-03T01:42:29;2.00;66.10
51801;DHT22;37855;53.204;6.568;2023-04-03T01:44:55;2.00;66.10
51801;DHT22;37855;53.204;6.568;2023-04-03T01:47:21;2.00;66.30
51801;DHT22;37855;53.204;6.568;2023-04-03T01:49:47;1.90;66.50
51801;DHT22;37855;53.204;6.568;2023-04-03T01:52:13;1.90;66.40
51801;DHT22;37855;53.204;6.568;2023-04-03T01:54:39;1.90;66.50
51801;DHT22;37855;53.204;6.568;2023-04-03T01:57:04;1.90;66.60
51801;DHT22;37855;53.204;6.568;2023-04-03T01:59:30;1.90;66.60
51801;DHT22;37855;53.204;6.568;2023-04-03T02:01:56;1.90;66.80
51801;DHT22;37855;53.204;6.568;2023-04-03T02:04:22;1.90;66.80
51801;DHT22;37855;53.204;6.568;2023-04-03T02:06:48;1.90;66.80
51801;DHT22;37855;53.204;6.568;2023-04-03T02:09:17;1.80;67.00
51801;DHT22;37855;53.204;6.568;2023-04-03T02:11:51;1.90;66.80
51801;DHT22;37855;53.204;6.568;2023-04-03T02:14:16;1.90;66.70
51801;DHT22;37855;53.204;6.568;2023-04-03T02:16:42;1.80;67.10
51801;DHT22;37855;53.204;6.568;2023-04-03T02:19:08;1.80;67.10
51801;DHT22;37855;53.204;6.568;2023-04-03T02:21:34;1.80;67.10
51801;DHT22;37855;53.204;6.568;2023-04-03T02:24:00;1.80;67.30
51801;DHT22;37855;53.204;6.568;2023-04-03T02:26:25;1.70;67.60
51801;DHT22;37855;53.204;6.568;2023-04-03T02:28:52;1.70;67.80
51801;DHT22;37855;53.204;6.568;2023-04-03T02:31:17;1.60;68.00
51801;DHT22;37855;53.204;6.568;2023-04-03T02:33:43;1.70;67.50
51801;DHT22;37855;53.204;6.568;2023-04-03T02:36:09;1.60;68.00
51801;DHT22;37855;53.204;6.568;2023-04-03T02:38:35;1.70;68.00
51801;DHT22;37855;53.204;6.568;2023-04-03T02:41:06;1.60;68.00
51801;DHT22;37855;53.204;6.568;2023-04-03T02:43:32;1.60;68.10
51801;DHT22;37855;53.204;6.568;2023-04-03T02:45:58;1.50;68.10
51801;DHT22;37855;53.204;6.568;2023-04-03T02:48:24;1.50;68.20
51801;DHT22;37855;53.204;6.568;2023-04-03T02:50:50;1.50;68.50
51801;DHT22;37855;53.204;6.568;2023-04-03T02:53:16;1.50;68.60
51801;DHT22;37855;53.204;6.568;2023-04-03T02:55:42;1.40;68.80
51801;DHT22;37855;53.204;6.568;2023-04-03T02:58:08;1.40;69.00
51801;DHT22;37855;53.204;6.568;2023-04-03T03:00:33;1.30;69.30
51801;DHT22;37855;53.204;6.568;2023-04-03T03:02:59;1.30;69.30
51801;DHT22;37855;53.204;6.568;2023-04-03T03:05:25;1.30;68.80
51801;DHT22;37855;53.204;6.568;2023-04-03T03:07:52;1.30;69.30
51801;DHT22;37855;53.204;6.568;2023-04-03T03:10:17;1.30;69.40
51801;DHT22;37855;53.204;6.568;2023-04-03T03:12:43;1.30;69.30
51801;DHT22;37855;53.204;6.568;2023-04-03T03:15:09;1.30;69.30
51801;DHT22;37855;53.204;6.568;2023-04-03T03:17:35;1.20;69.40
51801;DHT22;37855;53.204;6.568;2023-04-03T03:20:02;1.20;69.60
51801;DHT22;37855;53.204;6.568;2023-04-03T03:22:34;1.10;69.90
51801;DHT22;37855;53.204;6.568;2023-04-03T03:25:03;1.10;70.10
51801;DHT22;37855;53.204;6.568;2023-04-03T03:27:29;1.10;70.00
51801;DHT22;37855;53.204;6.568;2023-04-03T03:29:55;1.10;69.90
51801;DHT22;37855;53.204;6.568;2023-04-03T03:32:20;1.20;69.80
51801;DHT22;37855;53.204;6.568;2023-04-03T03:34:46;1.10;70.00
51801;DHT22;37855;53.204;6.568;2023-04-03T03:37:11;1.10;70.00
51801;DHT22;37855;53.204;6.568;2023-04-03T03:39:37;1.10;70.10
51801;DHT22;37855;53.204;6.568;2023-04-03T03:42:03;1.00;70.50
51801;DHT22;37855;53.204;6.568;2023-04-03T03:44:29;1.00;70.50
51801;DHT22;37855;53.204;6.568;2023-04-03T03:46:55;0.90;71.20
51801;DHT22;37855;53.204;6.568;2023-04-03T03:49:21;0.90;71.20
51801;DHT22;37855;53.204;6.568;2023-04-03T03:51:47;0.90;71.00
51801;DHT22;37855;53.204;6.568;2023-04-03T03:54:13;0.90;71.10
51801;DHT22;37855;53.204;6.568;2023-04-03T03:56:39;0.90;71.50
51801;DHT22;37855;53.204;6.568;2023-04-03T03:59:05;0.80;71.60
51801;DHT22;37855;53.204;6.568;2023-04-03T04:01:31;0.80;71.40
51801;DHT22;37855;53.204;6.568;2023-04-03T04:03:59;0.80;71.50
51801;DHT22;37855;53.204;6.568;2023-04-03T04:06:25;0.80;71.60
51801;DHT22;37855;53.204;6.568;2023-04-03T04:08:51;0.70;71.70
51801;DHT22;37855;53.204;6.568;2023-04-03T04:11:17;0.70;72.10
51801;DHT22;37855;53.204;6.568;2023-04-03T04:13:43;0.60;72.40
51801;DHT22;37855;53.204;6.568;2023-04-03T04:16:17;0.70;72.30
51801;DHT22;37855;53.204;6.568;2023-04-03T04:18:42;0.70;72.00
51801;DHT22;37855;53.204;6.568;2023-04-03T04:21:08;0.60;72.60
51801;DHT22;37855;53.204;6.568;2023-04-03T04:23:33;0.60;72.40
51801;DHT22;37855;53.204;6.568;2023-04-03T04:25:59;0.60;72.40
51801;DHT22;37855;53.204;6.568;2023-04-03T04:28:26;0.60;72.60
51801;DHT22;37855;53.204;6.568;2023-04-03T04:30:52;0.60;72.80
51801;DHT22;37855;53.204;6.568;2023-04-03T04:33:17;0.50;72.90
51801;DHT22;37855;53.204;6.568;2023-04-03T04:35:43;0.50;72.90
51801;DHT22;37855;53.204;6.568;2023-04-03T04:38:09;0.50;73.10
51801;DHT22;37855;53.204;6.568;2023-04-03T04:40:35;0.50;72.90
51801;DHT22;37855;53.204;6.568;2023-04-03T04:43:01;0.40;73.00
51801;DHT22;37855;53.204;6.568;2023-04-03T04:45:29;0.50;72.70
51801;DHT22;37855;53.204;6.568;2023-04-03T04:47:56;0.50;73.10
51801;DHT22;37855;53.204;6.568;2023-04-03T04:50:21;0.50;73.10
51801;DHT22;37855;53.204;6.568;2023-04-03T04:52:47;0.50;73.20
51801;DHT22;37855;53.204;6.568;2023-04-03T04:55:13;0.40;73.30
51801;DHT22;37855;53.204;6.568;2023-04-03T04:57:38;0.30;73.70
51801;DHT22;37855;53.204;6.568;2023-04-03T05:00:08;0.30;73.50
51801;DHT22;37855;53.204;6.568;2023-04-03T05:02:34;0.40;73.20
51801;DHT22;37855;53.204;6.568;2023-04-03T05:04:59;0.40;73.20
51801;DHT22;37855;53.204;6.568;2023-04-03T05:07:25;0.30;73.80
51801;DHT22;37855;53.204;6.568;2023-04-03T05:09:51;0.30;73.80
51801;DHT22;37855;53.204;6.568;2023-04-03T05:12:17;0.30;73.80
51801;DHT22;37855;53.204;6.568;2023-04-03T05:14:42;0.20;73.80
51801;DHT22;37855;53.204;6.568;2023-04-03T05:17:08;0.20;73.70
51801;DHT22;37855;53.204;6.568;2023-04-03T05:19:34;0.20;73.80
51801;DHT22;37855;53.204;6.568;2023-04-03T05:22:02;0.30;73.40
51801;DHT22;37855;53.204;6.568;2023-04-03T05:24:28;0.20;73.80
51801;DHT22;37855;53.204;6.568;2023-04-03T05:26:54;0.30;73.60
51801;DHT22;37855;53.204;6.568;2023-04-03T05:29:22;0.20;73.90
51801;DHT22;37855;53.204;6.568;2023-04-03T05:31:51;0.20;73.90
51801;DHT22;37855;53.204;6.568;2023-04-03T05:34:32;0.20;73.80
51801;DHT22;37855;53.204;6.568;2023-04-03T05:36:58;0.20;74.00
51801;DHT22;37855;53.204;6.568;2023-04-03T05:39:25;0.20;73.80
51801;DHT22;37855;53.204;6.568;2023-04-03T05:41:53;0.20;73.90
51801;DHT22;37855;53.204;6.568;2023-04-03T05:44:21;0.20;73.70
51801;DHT22;37855;53.204;6.568;2023-04-03T05:46:46;0.30;73.60
51801;DHT22;37855;53.204;6.568;2023-04-03T05:49:24;0.30;73.80
51801;DHT22;37855;53.204;6.568;2023-04-03T05:51:50;0.40;73.40
51801;DHT22;37855;53.204;6.568;2023-04-03T05:54:42;0.40;73.10
51801;DHT22;37855;53.204;6.568;2023-04-03T05:57:36;0.40;73.20
51801;DHT22;37855;53.204;6.568;2023-04-03T06:00:06;0.50;73.20
51801;DHT22;37855;53.204;6.568;2023-04-03T06:02:32;0.50;73.20
51801;DHT22;37855;53.204;6.568;2023-04-03T06:04:58;0.50;73.10
51801;DHT22;37855;53.204;6.568;2023-04-03T06:07:26;0.50;73.30
51801;DHT22;37855;53.204;6.568;2023-04-03T06:09:54;0.50;73.20
51801;DHT22;37855;53.204;6.568;2023-04-03T06:12:25;0.50;73.30
51801;DHT22;37855;53.204;6.568;2023-04-03T06:14:51;0.50;73.20
51801;DHT22;37855;53.204;6.568;2023-04-03T06:17:18;0.60;73.20
51801;DHT22;37855;53.204;6.568;2023-04-03T06:19:44;0.60;73.00
51801;DHT22;37855;53.204;6.568;2023-04-03T06:22:10;0.70;72.90
51801;DHT22;37855;53.204;6.568;2023-04-03T06:27:11;0.80;72.50
51801;DHT22;37855;53.204;6.568;2023-04-03T06:29:37;0.90;72.20
51801;DHT22;37855;53.204;6.568;2023-04-03T06:32:03;0.90;72.00
51801;DHT22;37855;53.204;6.568;2023-04-03T06:34:29;0.90;71.90
51801;DHT22;37855;53.204;6.568;2023-04-03T06:36:54;1.00;71.80
51801;DHT22;37855;53.204;6.568;2023-04-03T06:39:21;1.00;71.80
51801;DHT22;37855;53.204;6.568;2023-04-03T06:41:50;1.10;71.60
51801;DHT22;37855;53.204;6.568;2023-04-03T06:44:17;1.10;71.60
51801;DHT22;37855;53.204;6.568;2023-04-03T06:46:43;1.10;71.30
51801;DHT22;37855;53.204;6.568;2023-04-03T06:49:15;1.20;71.30
51801;DHT22;37855;53.204;6.568;2023-04-03T06:52:07;1.20;71.30
51801;DHT22;37855;53.204;6.568;2023-04-03T06:54:33;1.30;70.90
51801;DHT22;37855;53.204;6.568;2023-04-03T06:56:58;1.30;70.70
51801;DHT22;37855;53.204;6.568;2023-04-03T06:59:24;1.40;70.40
51801;DHT22;37855;53.204;6.568;2023-04-03T07:01:51;1.50;70.50
51801;DHT22;37855;53.204;6.568;2023-04-03T07:04:16;1.60;70.30
51801;DHT22;37855;53.204;6.568;2023-04-03T07:06:42;1.60;70.20
51801;DHT22;37855;53.204;6.568;2023-04-03T07:09:15;1.80;70.40
51801;DHT22;37855;53.204;6.568;2023-04-03T07:11:41;1.90;69.50
51801;DHT22;37855;53.204;6.568;2023-04-03T07:14:06;2.00;68.10
51801;DHT22;37855;53.204;6.568;2023-04-03T07:16:34;1.90;68.00
51801;DHT22;37855;53.204;6.568;2023-04-03T07:19:05;2.00;68.50
51801;DHT22;37855;53.204;6.568;2023-04-03T07:21:39;2.10;68.50
51801;DHT22;37855;53.204;6.568;2023-04-03T07:24:07;2.20;68.00
51801;DHT22;37855;53.204;6.568;2023-04-03T07:26:33;2.30;67.80
51801;DHT22;37855;53.204;6.568;2023-04-03T07:28:58;2.30;67.60
51801;DHT22;37855;53.204;6.568;2023-04-03T07:31:25;2.30;68.00
51801;DHT22;37855;53.204;6.568;2023-04-03T07:33:50;2.40;68.00
51801;DHT22;37855;53.204;6.568;2023-04-03T07:36:20;2.50;67.20
51801;DHT22;37855;53.204;6.568;2023-04-03T07:38:46;2.50;67.30
51801;DHT22;37855;53.204;6.568;2023-04-03T07:48:13;2.60;66.30
51801;DHT22;37855;53.204;6.568;2023-04-03T07:50:42;2.70;66.10
51801;DHT22;37855;53.204;6.568;2023-04-03T07:53:08;2.70;66.30
51801;DHT22;37855;53.204;6.568;2023-04-03T07:55:34;2.80;66.60
51801;DHT22;37855;53.204;6.568;2023-04-03T07:58:00;2.90;66.60
51801;DHT22;37855;53.204;6.568;2023-04-03T08:00:25;3.10;66.20
51801;DHT22;37855;53.204;6.568;2023-04-03T08:02:51;3.30;66.10
51801;DHT22;37855;53.204;6.568;2023-04-03T08:05:18;3.30;64.20
51801;DHT22;37855;53.204;6.568;2023-04-03T08:07:47;3.40;65.00
51801;DHT22;37855;53.204;6.568;2023-04-03T08:10:14;3.50;64.90
51801;DHT22;37855;53.204;6.568;2023-04-03T08:12:40;3.60;65.00
51801;DHT22;37855;53.204;6.568;2023-04-03T08:15:07;3.70;63.70
51801;DHT22;37855;53.204;6.568;2023-04-03T08:17:34;3.60;62.50
51801;DHT22;37855;53.204;6.568;2023-04-03T08:20:11;3.70;62.80
51801;DHT22;37855;53.204;6.568;2023-04-03T08:26:25;3.90;62.80
51801;DHT22;37855;53.204;6.568;2023-04-03T08:28:52;4.00;62.60
51801;DHT22;37855;53.204;6.568;2023-04-03T08:31:19;4.20;62.90
51801;DHT22;37855;53.204;6.568;2023-04-03T08:33:48;4.20;62.00
51801;DHT22;37855;53.204;6.568;2023-04-03T08:36:21;4.30;61.10
51801;DHT22;37855;53.204;6.568;2023-04-03T08:38:48;4.20;61.10
51801;DHT22;37855;53.204;6.568;2023-04-03T08:46:53;4.60;62.30
51801;DHT22;37855;53.204;6.568;2023-04-03T08:49:44;4.70;61.90
51801;DHT22;37855;53.204;6.568;2023-04-03T08:52:19;4.90;61.20
51801;DHT22;37855;53.204;6.568;2023-04-03T08:54:51;4.90;58.80
51801;DHT22;37855;53.204;6.568;2023-04-03T08:57:26;5.00;58.50
51801;DHT22;37855;53.204;6.568;2023-04-03T08:59:53;5.10;59.20
51801;DHT22;37855;53.204;6.568;2023-04-03T09:05:40;5.30;58.30
51801;DHT22;37855;53.204;6.568;2023-04-03T09:08:30;5.40;57.80
51801;DHT22;37855;53.204;6.568;2023-04-03T09:13:43;5.60;57.50
51801;DHT22;37855;53.204;6.568;2023-04-03T09:18:42;5.80;56.70
51801;DHT22;37855;53.204;6.568;2023-04-03T09:21:36;5.80;56.60
51801;DHT22;37855;53.204;6.568;2023-04-03T09:24:14;5.90;55.90
51801;DHT22;37855;53.204;6.568;2023-04-03T09:27:03;5.90;53.70
51801;DHT22;37855;53.204;6.568;2023-04-03T09:29:41;6.00;55.70
51801;DHT22;37855;53.204;6.568;2023-04-03T09:32:47;6.00;54.00
51801;DHT22;37855;53.204;6.568;2023-04-03T09:35:16;6.20;55.10
51801;DHT22;37855;53.204;6.568;2023-04-03T09:37:49;6.20;55.50
51801;DHT22;37855;53.204;6.568;2023-04-03T09:40:37;6.30;53.90
51801;DHT22;37855;53.204;6.568;2023-04-03T09:43:29;6.30;54.70
51801;DHT22;37855;53.204;6.568;2023-04-03T09:49:11;6.30;53.90
51801;DHT22;37855;53.204;6.568;2023-04-03T09:51:52;6.40;54.50
51801;DHT22;37855;53.204;6.568;2023-04-03T09:56:58;6.50;54.40
51801;DHT22;37855;53.204;6.568;2023-04-03T09:59:29;6.50;53.70
51801;DHT22;37855;53.204;6.568;2023-04-03T10:02:02;6.50;50.20
51801;DHT22;37855;53.204;6.568;2023-04-03T10:04:38;6.40;48.60
51801;DHT22;37855;53.204;6.568;2023-04-03T10:07:34;6.40;50.70
51801;DHT22;37855;53.204;6.568;2023-04-03T10:10:21;6.40;50.20
51801;DHT22;37855;53.204;6.568;2023-04-03T10:13:12;6.50;50.10
51801;DHT22;37855;53.204;6.568;2023-04-03T10:16:12;6.50;47.40
51801;DHT22;37855;53.204;6.568;2023-04-03T10:18:46;6.40;48.60
51801;DHT22;37855;53.204;6.568;2023-04-03T10:21:35;6.50;49.30
51801;DHT22;37855;53.204;6.568;2023-04-03T10:24:11;6.60;50.50
51801;DHT22;37855;53.204;6.568;2023-04-03T10:26:57;6.70;50.20
51801;DHT22;37855;53.204;6.568;2023-04-03T10:29:51;6.80;49.80
51801;DHT22;37855;53.204;6.568;2023-04-03T10:35:42;6.90;48.70
51801;DHT22;37855;53.204;6.568;2023-04-03T10:41:00;7.00;48.10
51801;DHT22;37855;53.204;6.568;2023-04-03T10:43:47;6.80;43.20
51801;DHT22;37855;53.204;6.568;2023-04-03T10:52:07;7.00;46.50
51801;DHT22;37855;53.204;6.568;2023-04-03T10:57:39;7.20;47.30
51801;DHT22;37855;53.204;6.568;2023-04-03T11:00:14;7.30;45.20
51801;DHT22;37855;53.204;6.568;2023-04-03T11:02:58;7.30;43.60
51801;DHT22;37855;53.204;6.568;2023-04-03T11:08:02;7.20;45.30
51801;DHT22;37855;53.204;6.568;2023-04-03T11:10:43;7.30;46.10
51801;DHT22;37855;53.204;6.568;2023-04-03T11:13:14;7.40;46.80
51801;DHT22;37855;53.204;6.568;2023-04-03T11:15:43;7.50;46.90
51801;DHT22;37855;53.204;6.568;2023-04-03T11:18:20;7.60;46.80
51801;DHT22;37855;53.204;6.568;2023-04-03T11:21:12;7.50;43.20
51801;DHT22;37855;53.204;6.568;2023-04-03T11:23:40;7.40;44.10
51801;DHT22;37855;53.204;6.568;2023-04-03T11:26:27;7.50;45.80
51801;DHT22;37855;53.204;6.568;2023-04-03T11:28:59;7.60;45.30
51801;DHT22;37855;53.204;6.568;2023-04-03T11:34:35;7.70;44.30
51801;DHT22;37855;53.204;6.568;2023-04-03T11:39:59;7.80;43.20
51801;DHT22;37855;53.204;6.568;2023-04-03T11:42:34;7.80;42.40
51801;DHT22;37855;53.204;6.568;2023-04-03T11:47:59;7.70;43.40
51801;DHT22;37855;53.204;6.568;2023-04-03T11:58:21;7.80;43.20
51801;DHT22;37855;53.204;6.568;2023-04-03T12:13:40;7.90;44.50
51801;DHT22;37855;53.204;6.568;2023-04-03T12:16:28;7.90;43.20
51801;DHT22;37855;53.204;6.568;2023-04-03T12:32:19;8.40;43.20
51801;DHT22;37855;53.204;6.568;2023-04-03T12:40:51;8.40;42.60
51801;DHT22;37855;53.204;6.568;2023-04-03T12:46:26;8.50;43.60
51801;DHT22;37855;53.204;6.568;2023-04-03T12:48:56;8.50;42.70
51801;DHT22;37855;53.204;6.568;2023-04-03T12:51:27;8.60;42.80
51801;DHT22;37855;53.204;6.568;2023-04-03T12:54:03;8.50;42.30
51801;DHT22;37855;53.204;6.568;2023-04-03T12:56:32;8.60;43.10
51801;DHT22;37855;53.204;6.568;2023-04-03T12:59:33;8.60;41.90
51801;DHT22;37855;53.204;6.568;2023-04-03T13:02:31;8.50;42.60
51801;DHT22;37855;53.204;6.568;2023-04-03T13:05:09;8.50;42.20
51801;DHT22;37855;53.204;6.568;2023-04-03T13:07:58;8.40;42.60
51801;DHT22;37855;53.204;6.568;2023-04-03T13:10:29;8.50;42.10
51801;DHT22;37855;53.204;6.568;2023-04-03T13:12:58;8.60;43.30
51801;DHT22;37855;53.204;6.568;2023-04-03T13:15:47;8.70;43.30
51801;DHT22;37855;53.204;6.568;2023-04-03T13:18:42;8.80;42.10
51801;DHT22;37855;53.204;6.568;2023-04-03T13:21:17;8.70;41.10
51801;DHT22;37855;53.204;6.568;2023-04-03T13:23:47;8.70;41.90
51801;DHT22;37855;53.204;6.568;2023-04-03T13:26:17;8.50;41.00
51801;DHT22;37855;53.204;6.568;2023-04-03T13:28:44;8.50;41.60
51801;DHT22;37855;53.204;6.568;2023-04-03T13:33:54;8.60;41.40
51801;DHT22;37855;53.204;6.568;2023-04-03T13:36:33;8.60;42.00
51801;DHT22;37855;53.204;6.568;2023-04-03T13:41:43;8.70;42.70
51801;DHT22;37855;53.204;6.568;2023-04-03T13:44:36;8.80;41.70
51801;DHT22;37855;53.204;6.568;2023-04-03T13:47:15;8.80;41.70
51801;DHT22;37855;53.204;6.568;2023-04-03T13:50:13;8.80;42.80
51801;DHT22;37855;53.204;6.568;2023-04-03T13:52:33;8.90;42.10
51801;DHT22;37855;53.204;6.568;2023-04-03T13:57:51;9.10;42.40
51801;DHT22;37855;53.204;6.568;2023-04-03T14:02:57;9.00;42.90
51801;DHT22;37855;53.204;6.568;2023-04-03T14:05:24;9.10;43.10
51801;DHT22;37855;53.204;6.568;2023-04-03T14:07:51;9.00;43.10
51801;DHT22;37855;53.204;6.568;2023-04-03T14:10:17;9.00;43.20
51801;DHT22;37855;53.204;6.568;2023-04-03T14:12:50;8.80;44.10
51801;DHT22;37855;53.204;6.568;2023-04-03T14:15:22;8.70;45.40
51801;DHT22;37855;53.204;6.568;2023-04-03T14:17:49;8.70;45.30
51801;DHT22;37855;53.204;6.568;2023-04-03T14:20:19;8.90;44.50
51801;DHT22;37855;53.204;6.568;2023-04-03T14:22:47;8.80;44.50
51801;DHT22;37855;53.204;6.568;2023-04-03T14:25:15;8.80;44.70
51801;DHT22;37855;53.204;6.568;2023-04-03T14:27:44;8.80;44.80
51801;DHT22;37855;53.204;6.568;2023-04-03T14:30:17;8.90;44.10
51801;DHT22;37855;53.204;6.568;2023-04-03T14:32:44;8.80;44.10
51801;DHT22;37855;53.204;6.568;2023-04-03T14:35:18;8.60;45.10
51801;DHT22;37855;53.204;6.568;2023-04-03T14:37:51;8.60;45.50
51801;DHT22;37855;53.204;6.568;2023-04-03T14:40:23;8.70;45.70
51801;DHT22;37855;53.204;6.568;2023-04-03T14:42:49;8.80;45.70
51801;DHT22;37855;53.204;6.568;2023-04-03T14:45:18;8.80;46.10
51801;DHT22;37855;53.204;6.568;2023-04-03T14:47:49;9.00;45.60
51801;DHT22;37855;53.204;6.568;2023-04-03T14:50:21;9.10;45.30
51801;DHT22;37855;53.204;6.568;2023-04-03T14:52:50;9.10;45.60
51801;DHT22;37855;53.204;6.568;2023-04-03T14:55:26;9.10;45.40
51801;DHT22;37855;53.204;6.568;2023-04-03T14:57:53;9.10;44.60
51801;DHT22;37855;53.204;6.568;2023-04-03T15:00:21;9.00;45.30
51801;DHT22;37855;53.204;6.568;2023-04-03T15:02:51;9.00;45.30
51801;DHT22;37855;53.204;6.568;2023-04-03T15:05:16;9.00;44.50
51801;DHT22;37855;53.204;6.568;2023-04-03T15:07:50;9.10;43.60
51801;DHT22;37855;53.204;6.568;2023-04-03T15:10:25;9.00;43.00
51801;DHT22;37855;53.204;6.568;2023-04-03T15:12:52;9.00;43.10
51801;DHT22;37855;53.204;6.568;2023-04-03T15:15:27;8.80;43.00
51801;DHT22;37855;53.204;6.568;2023-04-03T15:17:57;8.80;43.60
51801;DHT22;37855;53.204;6.568;2023-04-03T15:20:27;8.80;44.40
51801;DHT22;37855;53.204;6.568;2023-04-03T15:22:55;9.00;43.60
51801;DHT22;37855;53.204;6.568;2023-04-03T15:25:25;9.10;43.50
51801;DHT22;37855;53.204;6.568;2023-04-03T15:27:53;9.10;42.70
51801;DHT22;37855;53.204;6.568;2023-04-03T15:30:19;9.00;43.00
51801;DHT22;37855;53.204;6.568;2023-04-03T15:32:47;8.80;43.50
51801;DHT22;37855;53.204;6.568;2023-04-03T15:35:17;8.90;43.70
51801;DHT22;37855;53.204;6.568;2023-04-03T15:37:43;8.90;43.80
51801;DHT22;37855;53.204;6.568;2023-04-03T15:40:11;8.90;43.60
51801;DHT22;37855;53.204;6.568;2023-04-03T15:42:38;9.00;43.30
51801;DHT22;37855;53.204;6.568;2023-04-03T15:45:07;9.20;43.00
51801;DHT22;37855;53.204;6.568;2023-04-03T15:47:33;9.00;43.10
51801;DHT22;37855;53.204;6.568;2023-04-03T15:49:58;8.90;43.50
51801;DHT22;37855;53.204;6.568;2023-04-03T15:52:27;9.00;43.00
51801;DHT22;37855;53.204;6.568;2023-04-03T15:55:08;9.00;42.90
51801;DHT22;37855;53.204;6.568;2023-04-03T15:58:00;8.80;42.50
51801;DHT22;37855;53.204;6.568;2023-04-03T16:00:27;8.80;43.50
51801;DHT22;37855;53.204;6.568;2023-04-03T16:03:11;8.80;43.80
51801;DHT22;37855;53.204;6.568;2023-04-03T16:05:38;8.80;43.70
51801;DHT22;37855;53.204;6.568;2023-04-03T16:08:05;8.80;43.10
51801;DHT22;37855;53.204;6.568;2023-04-03T16:10:34;8.80;43.60
51801;DHT22;37855;53.204;6.568;2023-04-03T16:13:00;8.80;43.20
51801;DHT22;37855;53.204;6.568;2023-04-03T16:15:30;8.80;43.70
51801;DHT22;37855;53.204;6.568;2023-04-03T16:17:57;8.70;43.90
51801;DHT22;37855;53.204;6.568;2023-04-03T16:20:23;8.80;43.60
51801;DHT22;37855;53.204;6.568;2023-04-03T16:22:50;8.80;43.90
51801;DHT22;37855;53.204;6.568;2023-04-03T16:25:16;8.80;44.10
51801;DHT22;37855;53.204;6.568;2023-04-03T16:27:42;8.70;44.40
51801;DHT22;37855;53.204;6.568;2023-04-03T16:30:08;8.60;44.70
51801;DHT22;37855;53.204;6.568;2023-04-03T16:32:36;8.50;44.80
51801;DHT22;37855;53.204;6.568;2023-04-03T16:35:11;8.60;44.50
51801;DHT22;37855;53.204;6.568;2023-04-03T16:37:39;8.60;44.80
51801;DHT22;37855;53.204;6.568;2023-04-03T16:40:08;8.70;44.70
51801;DHT22;37855;53.204;6.568;2023-04-03T16:42:34;8.60;45.50
51801;DHT22;37855;53.204;6.568;2023-04-03T16:45:01;8.60;45.40
51801;DHT22;37855;53.204;6.568;2023-04-03T16:47:30;8.60;46.50
51801;DHT22;37855;53.204;6.568;2023-04-03T16:49:57;8.50;47.70
51801;DHT22;37855;53.204;6.568;2023-04-03T16:52:23;8.10;48.90
51801;DHT22;37855;53.204;6.568;2023-04-03T16:54:49;8.10;49.10
51801;DHT22;37855;53.204;6.568;2023-04-03T16:57:15;8.20;49.00
51801;DHT22;37855;53.204;6.568;2023-04-03T16:59:40;8.20;48.40
51801;DHT22;37855;53.204;6.568;2023-04-03T17:02:06;8.00;49.00
51801;DHT22;37855;53.204;6.568;2023-04-03T17:04:40;8.00;49.50
51801;DHT22;37855;53.204;6.568;2023-04-03T17:07:09;8.00;49.50
51801;DHT22;37855;53.204;6.568;2023-04-03T17:09:34;7.70;50.10
51801;DHT22;37855;53.204;6.568;2023-04-03T17:12:01;7.70;50.40
51801;DHT22;37855;53.204;6.568;2023-04-03T17:14:26;7.80;50.40
51801;DHT22;37855;53.204;6.568;2023-04-03T17:17:14;7.60;50.80
51801;DHT22;37855;53.204;6.568;2023-04-03T17:19:56;7.60;50.80
51801;DHT22;37855;53.204;6.568;2023-04-03T17:22:29;7.60;51.10
51801;DHT22;37855;53.204;6.568;2023-04-03T17:24:56;7.60;51.30
51801;DHT22;37855;53.204;6.568;2023-04-03T17:27:22;7.60;51.40
51801;DHT22;37855;53.204;6.568;2023-04-03T17:29:48;7.50;51.60
51801;DHT22;37855;53.204;6.568;2023-04-03T17:32:13;7.50;51.70
51801;DHT22;37855;53.204;6.568;2023-04-03T17:34:39;7.40;52.00
51801;DHT22;37855;53.204;6.568;2023-04-03T17:37:05;7.40;52.30
51801;DHT22;37855;53.204;6.568;2023-04-03T17:39:31;7.30;52.70
51801;DHT22;37855;53.204;6.568;2023-04-03T17:41:56;7.20;52.90
51801;DHT22;37855;53.204;6.568;2023-04-03T17:44:23;7.00;53.70
51801;DHT22;37855;53.204;6.568;2023-04-03T17:46:48;6.90;53.90
51801;DHT22;37855;53.204;6.568;2023-04-03T17:49:15;6.80;54.20
51801;DHT22;37855;53.204;6.568;2023-04-03T17:51:43;6.80;54.10
51801;DHT22;37855;53.204;6.568;2023-04-03T17:54:09;6.70;54.30
51801;DHT22;37855;53.204;6.568;2023-04-03T17:56:34;6.80;54.40
51801;DHT22;37855;53.204;6.568;2023-04-03T17:59:02;6.70;54.70
51801;DHT22;37855;53.204;6.568;2023-04-03T18:01:30;6.70;54.70
51801;DHT22;37855;53.204;6.568;2023-04-03T18:03:58;6.60;55.10